map of MCN home
MCN - Airport
Location
City:  Macon, Georgia, United States
Name:Middle Georgia Regional
ICAO:KMCN
IATA:MCN
FAA LID:MCN

Details
Type:Airport (Part 139 Class I)
Use:Public/Civil
Latitude:3241'34"N (32.692833)
Longitude:8338'57"W (-83.649221)
Datum:WGS 1984
Elevation:354 ft (108 m)
Variation:5.49W (WMM2015 magnetic declination)
-0.08 annual change
Runways:2
Longest:6500 × 150 ft (1981 × 45.5 m), paved

Time
Time Zone:UTC-5 (DST-4)
Local Time:

Weather
METAR:KMCN 111453Z 00000KT 10SM CLR 07/01 A3023 RMK AO2 SLP237 T00720011 50000
TAF:KMCN 111136Z 1112/1212 24004KT P6SM SKC
FM111800 25008KT P6SM FEW070
FM112300 24005KT P6SM FEW250
FM121100 30008KT P6SM BKN250

Related Locations
Nearby:
Farthest:MQZ: 11358 mi / 18278 km
Margaret River [Margaret River Airport], WA, AU

Find:

   beyond  
but within

Other Information
Maps:
Delays:
NOTAMs:
Links:
Sources:

  
flag of United States
flag of Georgia
  

Airport Diagram

Airport diagram for MCN

Airport diagram PDF

Sectional Chart

Flight Planning
at skyvector.com

Satellite Image

Google Maps Satellite view

 

Copyright © 2004-2017 Karl L. Swartz. All rights reserved.
The Great Circle Mapper name and logo are trademarks of the Great Circle Mapper.
All other trademarks mentioned herein belong to their respective owners.
Please see credits for attibutions and further copyright information.

  Follow gcmap on Facebook Follow gcmap on Twitter Follow gcmap on Google+ GCmap on LinkedIn

hCard Microformat

Geo Microformat